sensor_id;sensor_type;location;lat;lon;timestamp;temperature;humidity
75615;DHT22;64199;48.578;-4.520;2023-06-22T00:01:18;26.30;65.70
75615;DHT22;64199;48.578;-4.520;2023-06-22T00:03:44;26.20;65.60
75615;DHT22;64199;48.578;-4.520;2023-06-22T00:06:11;26.30;65.60
75615;DHT22;64199;48.578;-4.520;2023-06-22T00:08:37;26.30;65.60
75615;DHT22;64199;48.578;-4.520;2023-06-22T00:11:03;26.20;65.60
75615;DHT22;64199;48.578;-4.520;2023-06-22T00:13:30;26.20;65.60
75615;DHT22;64199;48.578;-4.520;2023-06-22T00:15:56;26.20;65.70
75615;DHT22;64199;48.578;-4.520;2023-06-22T00:18:22;26.20;65.70
75615;DHT22;64199;48.578;-4.520;2023-06-22T00:20:55;26.20;65.60
75615;DHT22;64199;48.578;-4.520;2023-06-22T00:23:23;26.20;65.60
75615;DHT22;64199;48.578;-4.520;2023-06-22T00:25:49;26.20;65.60
75615;DHT22;64199;48.578;-4.520;2023-06-22T00:28:16;26.20;65.60
75615;DHT22;64199;48.578;-4.520;2023-06-22T00:30:42;26.20;65.60
75615;DHT22;64199;48.578;-4.520;2023-06-22T00:33:08;26.20;65.70
75615;DHT22;64199;48.578;-4.520;2023-06-22T00:35:34;26.20;65.70
75615;DHT22;64199;48.578;-4.520;2023-06-22T00:38:01;26.20;65.70
75615;DHT22;64199;48.578;-4.520;2023-06-22T00:40:31;26.20;65.70
75615;DHT22;64199;48.578;-4.520;2023-06-22T00:42:58;26.20;65.70
75615;DHT22;64199;48.578;-4.520;2023-06-22T00:45:25;26.20;65.70
75615;DHT22;64199;48.578;-4.520;2023-06-22T00:47:54;26.20;65.60
75615;DHT22;64199;48.578;-4.520;2023-06-22T00:50:23;26.20;65.70
75615;DHT22;64199;48.578;-4.520;2023-06-22T00:52:52;26.20;65.70
75615;DHT22;64199;48.578;-4.520;2023-06-22T00:55:22;26.20;65.70
75615;DHT22;64199;48.578;-4.520;2023-06-22T00:57:56;26.30;65.70
75615;DHT22;64199;48.578;-4.520;2023-06-22T01:00:25;26.20;65.70
75615;DHT22;64199;48.578;-4.520;2023-06-22T01:02:51;26.20;65.70
75615;DHT22;64199;48.578;-4.520;2023-06-22T01:05:22;26.20;65.70
75615;DHT22;64199;48.578;-4.520;2023-06-22T01:10:47;26.10;65.70
75615;DHT22;64199;48.578;-4.520;2023-06-22T01:15:53;26.10;65.80
75615;DHT22;64199;48.578;-4.520;2023-06-22T01:18:24;26.10;65.80
75615;DHT22;64199;48.578;-4.520;2023-06-22T01:20:57;26.10;65.80
75615;DHT22;64199;48.578;-4.520;2023-06-22T01:26:35;26.10;65.70
75615;DHT22;64199;48.578;-4.520;2023-06-22T01:29:05;26.10;65.70
75615;DHT22;64199;48.578;-4.520;2023-06-22T01:31:34;26.10;65.70
75615;DHT22;64199;48.578;-4.520;2023-06-22T01:34:03;26.10;65.80
75615;DHT22;64199;48.578;-4.520;2023-06-22T01:36:31;26.10;65.80
75615;DHT22;64199;48.578;-4.520;2023-06-22T01:38:58;26.10;65.90
75615;DHT22;64199;48.578;-4.520;2023-06-22T01:41:26;26.10;65.90
75615;DHT22;64199;48.578;-4.520;2023-06-22T01:43:53;26.00;65.80
75615;DHT22;64199;48.578;-4.520;2023-06-22T01:46:21;26.10;65.80
75615;DHT22;64199;48.578;-4.520;2023-06-22T01:48:47;26.00;65.80
75615;DHT22;64199;48.578;-4.520;2023-06-22T01:51:14;26.10;65.90
75615;DHT22;64199;48.578;-4.520;2023-06-22T01:53:41;26.00;65.80
75615;DHT22;64199;48.578;-4.520;2023-06-22T01:56:11;26.00;65.90
75615;DHT22;64199;48.578;-4.520;2023-06-22T01:58:44;26.00;65.90
75615;DHT22;64199;48.578;-4.520;2023-06-22T02:01:14;26.00;65.90
75615;DHT22;64199;48.578;-4.520;2023-06-22T02:03:49;26.00;65.90
75615;DHT22;64199;48.578;-4.520;2023-06-22T02:06:23;26.00;65.90
75615;DHT22;64199;48.578;-4.520;2023-06-22T02:08:55;26.00;65.80
75615;DHT22;64199;48.578;-4.520;2023-06-22T02:11:25;26.00;65.80
75615;DHT22;64199;48.578;-4.520;2023-06-22T02:13:54;26.00;65.80
75615;DHT22;64199;48.578;-4.520;2023-06-22T02:16:27;26.00;65.90
75615;DHT22;64199;48.578;-4.520;2023-06-22T02:18:56;26.00;65.90
75615;DHT22;64199;48.578;-4.520;2023-06-22T02:21:26;26.00;65.90
75615;DHT22;64199;48.578;-4.520;2023-06-22T02:23:52;26.00;65.90
75615;DHT22;64199;48.578;-4.520;2023-06-22T02:26:18;26.00;65.90
75615;DHT22;64199;48.578;-4.520;2023-06-22T02:28:47;26.00;65.90
75615;DHT22;64199;48.578;-4.520;2023-06-22T02:31:14;26.00;65.90
75615;DHT22;64199;48.578;-4.520;2023-06-22T02:33:40;26.00;65.90
75615;DHT22;64199;48.578;-4.520;2023-06-22T02:36:06;26.00;65.90
75615;DHT22;64199;48.578;-4.520;2023-06-22T02:38:36;25.90;65.90
75615;DHT22;64199;48.578;-4.520;2023-06-22T02:41:02;25.90;65.90
75615;DHT22;64199;48.578;-4.520;2023-06-22T02:43:30;24.20;64.40
75615;DHT22;64199;48.578;-4.520;2023-06-22T02:45:56;25.90;65.90
75615;DHT22;64199;48.578;-4.520;2023-06-22T02:48:23;25.90;65.90
75615;DHT22;64199;48.578;-4.520;2023-06-22T02:50:49;25.90;65.90
75615;DHT22;64199;48.578;-4.520;2023-06-22T02:53:15;25.90;65.90
75615;DHT22;64199;48.578;-4.520;2023-06-22T02:55:42;25.90;66.00
75615;DHT22;64199;48.578;-4.520;2023-06-22T02:58:09;25.80;65.90
75615;DHT22;64199;48.578;-4.520;2023-06-22T03:00:36;25.90;66.00
75615;DHT22;64199;48.578;-4.520;2023-06-22T03:03:02;25.90;66.10
75615;DHT22;64199;48.578;-4.520;2023-06-22T03:05:28;25.80;66.00
75615;DHT22;64199;48.578;-4.520;2023-06-22T03:07:54;25.90;66.10
75615;DHT22;64199;48.578;-4.520;2023-06-22T03:10:20;25.80;66.00
75615;DHT22;64199;48.578;-4.520;2023-06-22T03:12:46;25.80;66.00
75615;DHT22;64199;48.578;-4.520;2023-06-22T03:15:13;25.90;66.20
75615;DHT22;64199;48.578;-4.520;2023-06-22T03:17:40;25.80;66.00
75615;DHT22;64199;48.578;-4.520;2023-06-22T03:20:07;25.80;65.90
75615;DHT22;64199;48.578;-4.520;2023-06-22T03:22:39;25.80;65.80
75615;DHT22;64199;48.578;-4.520;2023-06-22T03:25:10;25.80;65.80
75615;DHT22;64199;48.578;-4.520;2023-06-22T03:27:38;25.80;65.80
75615;DHT22;64199;48.578;-4.520;2023-06-22T03:30:06;25.80;65.90
75615;DHT22;64199;48.578;-4.520;2023-06-22T03:32:33;25.80;65.90
75615;DHT22;64199;48.578;-4.520;2023-06-22T03:34:59;25.80;65.90
75615;DHT22;64199;48.578;-4.520;2023-06-22T03:37:27;25.80;65.90
75615;DHT22;64199;48.578;-4.520;2023-06-22T03:39:53;25.80;65.90
75615;DHT22;64199;48.578;-4.520;2023-06-22T03:42:20;25.80;66.00
75615;DHT22;64199;48.578;-4.520;2023-06-22T03:44:47;25.80;66.00
75615;DHT22;64199;48.578;-4.520;2023-06-22T03:47:13;25.70;65.90
75615;DHT22;64199;48.578;-4.520;2023-06-22T03:49:40;25.70;65.90
75615;DHT22;64199;48.578;-4.520;2023-06-22T03:52:07;25.70;65.90
75615;DHT22;64199;48.578;-4.520;2023-06-22T03:54:34;25.70;65.90
75615;DHT22;64199;48.578;-4.520;2023-06-22T03:57:01;25.80;66.00
75615;DHT22;64199;48.578;-4.520;2023-06-22T03:59:27;25.70;65.90
75615;DHT22;64199;48.578;-4.520;2023-06-22T04:01:56;25.70;65.90
75615;DHT22;64199;48.578;-4.520;2023-06-22T04:04:22;25.70;65.90
75615;DHT22;64199;48.578;-4.520;2023-06-22T04:06:50;25.70;66.00
75615;DHT22;64199;48.578;-4.520;2023-06-22T04:09:16;25.70;65.90
75615;DHT22;64199;48.578;-4.520;2023-06-22T04:11:43;25.60;65.90
75615;DHT22;64199;48.578;-4.520;2023-06-22T04:14:09;25.60;65.90
75615;DHT22;64199;48.578;-4.520;2023-06-22T04:16:36;25.60;66.00
75615;DHT22;64199;48.578;-4.520;2023-06-22T04:19:01;25.70;65.90
75615;DHT22;64199;48.578;-4.520;2023-06-22T04:21:27;25.60;65.90
75615;DHT22;64199;48.578;-4.520;2023-06-22T04:23:54;25.60;65.90
75615;DHT22;64199;48.578;-4.520;2023-06-22T04:26:20;25.60;65.90
75615;DHT22;64199;48.578;-4.520;2023-06-22T04:28:53;25.60;65.90
75615;DHT22;64199;48.578;-4.520;2023-06-22T04:31:21;25.60;65.80
75615;DHT22;64199;48.578;-4.520;2023-06-22T04:33:47;25.60;65.90
75615;DHT22;64199;48.578;-4.520;2023-06-22T04:36:14;25.60;66.70
75615;DHT22;64199;48.578;-4.520;2023-06-22T04:38:40;25.60;65.90
75615;DHT22;64199;48.578;-4.520;2023-06-22T04:41:08;25.60;65.80
75615;DHT22;64199;48.578;-4.520;2023-06-22T04:43:40;25.50;65.70
75615;DHT22;64199;48.578;-4.520;2023-06-22T04:46:07;25.50;65.70
75615;DHT22;64199;48.578;-4.520;2023-06-22T04:48:33;25.50;65.70
75615;DHT22;64199;48.578;-4.520;2023-06-22T04:51:01;25.50;65.80
75615;DHT22;64199;48.578;-4.520;2023-06-22T04:53:30;25.50;65.70
75615;DHT22;64199;48.578;-4.520;2023-06-22T04:55:57;25.50;65.70
75615;DHT22;64199;48.578;-4.520;2023-06-22T04:58:23;25.50;65.70
75615;DHT22;64199;48.578;-4.520;2023-06-22T05:00:52;25.50;65.80
75615;DHT22;64199;48.578;-4.520;2023-06-22T05:03:20;25.50;65.80
75615;DHT22;64199;48.578;-4.520;2023-06-22T05:05:46;25.50;65.70
75615;DHT22;64199;48.578;-4.520;2023-06-22T05:08:13;25.50;65.70
75615;DHT22;64199;48.578;-4.520;2023-06-22T05:10:39;25.50;65.80
75615;DHT22;64199;48.578;-4.520;2023-06-22T05:13:06;25.50;65.80
75615;DHT22;64199;48.578;-4.520;2023-06-22T05:15:32;25.50;65.90
75615;DHT22;64199;48.578;-4.520;2023-06-22T05:18:09;25.40;65.70
75615;DHT22;64199;48.578;-4.520;2023-06-22T05:20:38;25.40;65.80
75615;DHT22;64199;48.578;-4.520;2023-06-22T05:23:04;25.50;65.90
75615;DHT22;64199;48.578;-4.520;2023-06-22T05:25:31;25.40;65.80
75615;DHT22;64199;48.578;-4.520;2023-06-22T05:27:58;25.40;65.80
75615;DHT22;64199;48.578;-4.520;2023-06-22T05:30:24;25.40;65.80
75615;DHT22;64199;48.578;-4.520;2023-06-22T05:32:50;25.40;65.80
75615;DHT22;64199;48.578;-4.520;2023-06-22T05:35:18;25.40;65.80
75615;DHT22;64199;48.578;-4.520;2023-06-22T05:37:45;25.40;65.90
75615;DHT22;64199;48.578;-4.520;2023-06-22T05:40:11;25.40;66.00
75615;DHT22;64199;48.578;-4.520;2023-06-22T05:42:38;25.40;66.10
75615;DHT22;64199;48.578;-4.520;2023-06-22T05:45:05;25.30;66.10
75615;DHT22;64199;48.578;-4.520;2023-06-22T05:47:31;25.30;66.20
75615;DHT22;64199;48.578;-4.520;2023-06-22T05:49:57;25.40;66.30
75615;DHT22;64199;48.578;-4.520;2023-06-22T05:52:23;25.30;66.30
75615;DHT22;64199;48.578;-4.520;2023-06-22T05:54:50;25.30;66.40
75615;DHT22;64199;48.578;-4.520;2023-06-22T05:57:16;25.30;66.50
75615;DHT22;64199;48.578;-4.520;2023-06-22T05:59:43;25.40;66.60
75615;DHT22;64199;48.578;-4.520;2023-06-22T06:02:09;25.40;66.60
75615;DHT22;64199;48.578;-4.520;2023-06-22T06:04:36;25.40;66.60
75615;DHT22;64199;48.578;-4.520;2023-06-22T06:07:02;25.30;66.50
75615;DHT22;64199;48.578;-4.520;2023-06-22T06:09:29;25.30;66.60
75615;DHT22;64199;48.578;-4.520;2023-06-22T06:11:55;25.30;66.60
75615;DHT22;64199;48.578;-4.520;2023-06-22T06:14:21;25.30;66.60
75615;DHT22;64199;48.578;-4.520;2023-06-22T06:16:49;25.30;66.60
75615;DHT22;64199;48.578;-4.520;2023-06-22T06:19:15;25.30;66.50
75615;DHT22;64199;48.578;-4.520;2023-06-22T06:21:41;25.30;66.50
75615;DHT22;64199;48.578;-4.520;2023-06-22T06:24:07;25.30;66.50
75615;DHT22;64199;48.578;-4.520;2023-06-22T06:26:33;25.30;66.50
75615;DHT22;64199;48.578;-4.520;2023-06-22T06:29:01;25.30;66.60
75615;DHT22;64199;48.578;-4.520;2023-06-22T06:31:28;25.20;66.70
75615;DHT22;64199;48.578;-4.520;2023-06-22T06:33:54;25.30;66.60
75615;DHT22;64199;48.578;-4.520;2023-06-22T06:36:21;25.30;66.60
75615;DHT22;64199;48.578;-4.520;2023-06-22T06:38:47;25.30;66.50
75615;DHT22;64199;48.578;-4.520;2023-06-22T06:41:14;25.30;66.60
75615;DHT22;64199;48.578;-4.520;2023-06-22T06:43:44;25.20;66.50
75615;DHT22;64199;48.578;-4.520;2023-06-22T06:46:11;25.20;66.50
75615;DHT22;64199;48.578;-4.520;2023-06-22T06:48:37;25.20;66.50
75615;DHT22;64199;48.578;-4.520;2023-06-22T06:51:05;25.20;66.50
75615;DHT22;64199;48.578;-4.520;2023-06-22T06:53:37;25.20;66.50
75615;DHT22;64199;48.578;-4.520;2023-06-22T06:56:06;25.20;66.60
75615;DHT22;64199;48.578;-4.520;2023-06-22T06:58:32;25.20;66.60
75615;DHT22;64199;48.578;-4.520;2023-06-22T07:00:58;25.20;66.70
75615;DHT22;64199;48.578;-4.520;2023-06-22T07:03:24;25.20;66.70
75615;DHT22;64199;48.578;-4.520;2023-06-22T07:05:51;25.20;66.70
75615;DHT22;64199;48.578;-4.520;2023-06-22T07:08:18;25.20;66.70
75615;DHT22;64199;48.578;-4.520;2023-06-22T07:10:47;25.20;66.70
75615;DHT22;64199;48.578;-4.520;2023-06-22T07:13:13;25.20;66.70
75615;DHT22;64199;48.578;-4.520;2023-06-22T07:15:39;25.20;66.70
75615;DHT22;64199;48.578;-4.520;2023-06-22T07:18:05;25.20;66.70
75615;DHT22;64199;48.578;-4.520;2023-06-22T07:20:31;25.20;66.70
75615;DHT22;64199;48.578;-4.520;2023-06-22T07:22:57;25.20;66.70
75615;DHT22;64199;48.578;-4.520;2023-06-22T07:25:23;25.20;66.70
75615;DHT22;64199;48.578;-4.520;2023-06-22T07:28:02;25.20;66.70
75615;DHT22;64199;48.578;-4.520;2023-06-22T07:30:37;25.20;66.80
75615;DHT22;64199;48.578;-4.520;2023-06-22T07:33:03;25.20;66.80
75615;DHT22;64199;48.578;-4.520;2023-06-22T07:35:32;25.20;66.90
75615;DHT22;64199;48.578;-4.520;2023-06-22T07:37:59;25.20;66.90
75615;DHT22;64199;48.578;-4.520;2023-06-22T07:40:28;25.20;66.90
75615;DHT22;64199;48.578;-4.520;2023-06-22T07:42:55;25.20;66.90
75615;DHT22;64199;48.578;-4.520;2023-06-22T07:45:21;25.10;66.90
75615;DHT22;64199;48.578;-4.520;2023-06-22T07:47:47;25.20;66.90
75615;DHT22;64199;48.578;-4.520;2023-06-22T07:50:13;25.20;67.00
75615;DHT22;64199;48.578;-4.520;2023-06-22T07:52:39;25.20;67.10
75615;DHT22;64199;48.578;-4.520;2023-06-22T07:55:05;25.20;67.00
75615;DHT22;64199;48.578;-4.520;2023-06-22T07:57:31;25.20;67.00
75615;DHT22;64199;48.578;-4.520;2023-06-22T08:00:03;25.10;66.90
75615;DHT22;64199;48.578;-4.520;2023-06-22T08:02:37;25.20;66.80
75615;DHT22;64199;48.578;-4.520;2023-06-22T08:05:03;25.10;66.70
75615;DHT22;64199;48.578;-4.520;2023-06-22T08:07:30;25.10;66.80
75615;DHT22;64199;48.578;-4.520;2023-06-22T08:09:59;25.10;66.80
75615;DHT22;64199;48.578;-4.520;2023-06-22T08:12:25;25.10;66.80
75615;DHT22;64199;48.578;-4.520;2023-06-22T08:14:52;25.10;66.90
75615;DHT22;64199;48.578;-4.520;2023-06-22T08:17:18;25.10;66.90
75615;DHT22;64199;48.578;-4.520;2023-06-22T08:19:46;25.10;66.90
75615;DHT22;64199;48.578;-4.520;2023-06-22T08:22:12;25.10;67.00
75615;DHT22;64199;48.578;-4.520;2023-06-22T08:24:38;25.10;66.90
75615;DHT22;64199;48.578;-4.520;2023-06-22T08:27:07;25.10;66.90
75615;DHT22;64199;48.578;-4.520;2023-06-22T08:29:41;25.10;66.90
75615;DHT22;64199;48.578;-4.520;2023-06-22T08:32:12;25.10;66.90
75615;DHT22;64199;48.578;-4.520;2023-06-22T08:34:39;25.10;67.00
75615;DHT22;64199;48.578;-4.520;2023-06-22T08:37:08;25.10;66.90
75615;DHT22;64199;48.578;-4.520;2023-06-22T08:39:35;25.10;67.00
75615;DHT22;64199;48.578;-4.520;2023-06-22T08:42:01;25.10;67.00
75615;DHT22;64199;48.578;-4.520;2023-06-22T08:44:27;25.00;66.90
75615;DHT22;64199;48.578;-4.520;2023-06-22T08:46:53;25.10;67.10
75615;DHT22;64199;48.578;-4.520;2023-06-22T08:49:19;25.20;67.20
75615;DHT22;64199;48.578;-4.520;2023-06-22T08:51:45;25.10;67.10
75615;DHT22;64199;48.578;-4.520;2023-06-22T08:54:13;25.10;67.20
75615;DHT22;64199;48.578;-4.520;2023-06-22T08:56:39;25.10;67.20
75615;DHT22;64199;48.578;-4.520;2023-06-22T08:59:06;25.10;67.30
75615;DHT22;64199;48.578;-4.520;2023-06-22T09:01:33;25.10;67.30
75615;DHT22;64199;48.578;-4.520;2023-06-22T09:03:59;25.10;67.30
75615;DHT22;64199;48.578;-4.520;2023-06-22T09:06:26;25.10;67.40
75615;DHT22;64199;48.578;-4.520;2023-06-22T09:08:52;25.10;67.40
75615;DHT22;64199;48.578;-4.520;2023-06-22T09:11:18;25.10;67.50
75615;DHT22;64199;48.578;-4.520;2023-06-22T09:13:44;25.10;67.50
75615;DHT22;64199;48.578;-4.520;2023-06-22T09:16:10;25.10;67.40
75615;DHT22;64199;48.578;-4.520;2023-06-22T09:18:37;25.10;67.30
75615;DHT22;64199;48.578;-4.520;2023-06-22T09:21:05;25.10;67.30
75615;DHT22;64199;48.578;-4.520;2023-06-22T09:23:32;25.10;67.30
75615;DHT22;64199;48.578;-4.520;2023-06-22T09:25:59;25.10;67.30
75615;DHT22;64199;48.578;-4.520;2023-06-22T09:28:27;25.10;67.30
75615;DHT22;64199;48.578;-4.520;2023-06-22T09:30:53;25.10;67.40
75615;DHT22;64199;48.578;-4.520;2023-06-22T09:33:25;25.10;67.40
75615;DHT22;64199;48.578;-4.520;2023-06-22T09:35:51;25.10;67.50
75615;DHT22;64199;48.578;-4.520;2023-06-22T09:38:17;25.10;67.40
75615;DHT22;64199;48.578;-4.520;2023-06-22T09:40:43;25.10;67.50
75615;DHT22;64199;48.578;-4.520;2023-06-22T09:43:09;25.10;67.40
75615;DHT22;64199;48.578;-4.520;2023-06-22T09:45:35;25.10;67.40
75615;DHT22;64199;48.578;-4.520;2023-06-22T09:48:01;25.10;67.40
75615;DHT22;64199;48.578;-4.520;2023-06-22T09:50:27;25.10;67.50
75615;DHT22;64199;48.578;-4.520;2023-06-22T09:52:53;25.00;67.40
75615;DHT22;64199;48.578;-4.520;2023-06-22T09:55:23;25.10;67.50
75615;DHT22;64199;48.578;-4.520;2023-06-22T09:57:49;25.10;67.50
75615;DHT22;64199;48.578;-4.520;2023-06-22T10:00:17;25.10;67.50
75615;DHT22;64199;48.578;-4.520;2023-06-22T10:02:46;25.10;67.50
75615;DHT22;64199;48.578;-4.520;2023-06-22T10:05:11;25.10;67.50
75615;DHT22;64199;48.578;-4.520;2023-06-22T10:07:37;25.10;67.50
75615;DHT22;64199;48.578;-4.520;2023-06-22T10:10:09;25.10;67.50
75615;DHT22;64199;48.578;-4.520;2023-06-22T10:12:48;25.10;67.50
75615;DHT22;64199;48.578;-4.520;2023-06-22T10:15:14;25.10;67.60
75615;DHT22;64199;48.578;-4.520;2023-06-22T10:17:41;25.10;67.60
75615;DHT22;64199;48.578;-4.520;2023-06-22T10:20:07;25.10;67.50
75615;DHT22;64199;48.578;-4.520;2023-06-22T10:22:42;25.10;67.60
75615;DHT22;64199;48.578;-4.520;2023-06-22T10:25:09;25.10;67.50
75615;DHT22;64199;48.578;-4.520;2023-06-22T10:27:36;25.10;67.50
75615;DHT22;64199;48.578;-4.520;2023-06-22T10:30:02;25.10;67.60
75615;DHT22;64199;48.578;-4.520;2023-06-22T10:32:31;25.20;67.70
75615;DHT22;64199;48.578;-4.520;2023-06-22T10:34:57;25.20;67.60
75615;DHT22;64199;48.578;-4.520;2023-06-22T10:37:23;25.20;67.60
75615;DHT22;64199;48.578;-4.520;2023-06-22T10:39:49;25.10;67.50
75615;DHT22;64199;48.578;-4.520;2023-06-22T10:42:15;25.20;67.60
75615;DHT22;64199;48.578;-4.520;2023-06-22T10:44:41;25.20;67.60
75615;DHT22;64199;48.578;-4.520;2023-06-22T10:47:10;25.20;67.60
75615;DHT22;64199;48.578;-4.520;2023-06-22T10:49:39;25.20;67.60
75615;DHT22;64199;48.578;-4.520;2023-06-22T10:52:09;25.20;67.60
75615;DHT22;64199;48.578;-4.520;2023-06-22T10:54:35;25.20;67.70
75615;DHT22;64199;48.578;-4.520;2023-06-22T10:57:02;25.20;67.70
75615;DHT22;64199;48.578;-4.520;2023-06-22T10:59:28;25.20;67.70
75615;DHT22;64199;48.578;-4.520;2023-06-22T11:01:58;25.20;67.70
75615;DHT22;64199;48.578;-4.520;2023-06-22T11:04:25;25.20;67.60
75615;DHT22;64199;48.578;-4.520;2023-06-22T11:06:51;25.20;67.50
75615;DHT22;64199;48.578;-4.520;2023-06-22T11:09:17;25.20;67.40
75615;DHT22;64199;48.578;-4.520;2023-06-22T11:11:47;25.20;67.30
75615;DHT22;64199;48.578;-4.520;2023-06-22T11:14:13;25.20;67.20
75615;DHT22;64199;48.578;-4.520;2023-06-22T11:16:40;25.20;67.20
75615;DHT22;64199;48.578;-4.520;2023-06-22T11:19:11;25.20;67.10
75615;DHT22;64199;48.578;-4.520;2023-06-22T11:21:38;25.20;67.00
75615;DHT22;64199;48.578;-4.520;2023-06-22T11:24:05;25.20;66.90
75615;DHT22;64199;48.578;-4.520;2023-06-22T11:26:31;25.20;66.80
75615;DHT22;64199;48.578;-4.520;2023-06-22T11:28:58;25.20;66.80
75615;DHT22;64199;48.578;-4.520;2023-06-22T11:31:25;25.20;66.70
75615;DHT22;64199;48.578;-4.520;2023-06-22T11:33:52;25.20;66.70
75615;DHT22;64199;48.578;-4.520;2023-06-22T11:36:19;25.20;66.60
75615;DHT22;64199;48.578;-4.520;2023-06-22T11:38:45;25.20;66.60
75615;DHT22;64199;48.578;-4.520;2023-06-22T11:41:12;25.20;66.50
75615;DHT22;64199;48.578;-4.520;2023-06-22T11:43:38;25.20;66.50
75615;DHT22;64199;48.578;-4.520;2023-06-22T11:46:05;25.20;66.40
75615;DHT22;64199;48.578;-4.520;2023-06-22T11:48:31;25.20;66.40
75615;DHT22;64199;48.578;-4.520;2023-06-22T11:50:58;25.20;66.50
75615;DHT22;64199;48.578;-4.520;2023-06-22T11:53:26;25.20;66.50
75615;DHT22;64199;48.578;-4.520;2023-06-22T11:55:52;25.20;66.40
75615;DHT22;64199;48.578;-4.520;2023-06-22T11:58:19;25.20;66.40
75615;DHT22;64199;48.578;-4.520;2023-06-22T12:00:46;25.20;66.30
75615;DHT22;64199;48.578;-4.520;2023-06-22T12:03:15;25.20;66.30
75615;DHT22;64199;48.578;-4.520;2023-06-22T12:05:42;25.20;66.30
75615;DHT22;64199;48.578;-4.520;2023-06-22T12:08:08;25.20;66.30
75615;DHT22;64199;48.578;-4.520;2023-06-22T12:10:37;25.20;66.30
75615;DHT22;64199;48.578;-4.520;2023-06-22T12:13:03;25.20;66.30
75615;DHT22;64199;48.578;-4.520;2023-06-22T12:15:31;25.20;66.20
75615;DHT22;64199;48.578;-4.520;2023-06-22T12:17:57;25.20;66.20
75615;DHT22;64199;48.578;-4.520;2023-06-22T12:20:24;25.20;66.20
75615;DHT22;64199;48.578;-4.520;2023-06-22T12:22:50;25.20;66.20
75615;DHT22;64199;48.578;-4.520;2023-06-22T12:25:18;25.20;66.10
75615;DHT22;64199;48.578;-4.520;2023-06-22T12:27:48;25.20;66.20
75615;DHT22;64199;48.578;-4.520;2023-06-22T12:30:16;25.20;66.10
75615;DHT22;64199;48.578;-4.520;2023-06-22T12:32:42;25.20;66.10
75615;DHT22;64199;48.578;-4.520;2023-06-22T12:35:08;25.20;66.10
75615;DHT22;64199;48.578;-4.520;2023-06-22T12:37:42;25.20;66.10
75615;DHT22;64199;48.578;-4.520;2023-06-22T12:40:09;25.20;66.10
75615;DHT22;64199;48.578;-4.520;2023-06-22T12:42:35;25.20;66.10
75615;DHT22;64199;48.578;-4.520;2023-06-22T12:45:01;25.20;66.10
75615;DHT22;64199;48.578;-4.520;2023-06-22T12:47:27;25.20;66.10
75615;DHT22;64199;48.578;-4.520;2023-06-22T12:49:53;25.20;66.10
75615;DHT22;64199;48.578;-4.520;2023-06-22T12:52:19;25.20;66.10
75615;DHT22;64199;48.578;-4.520;2023-06-22T12:54:44;25.20;66.10
75615;DHT22;64199;48.578;-4.520;2023-06-22T12:57:11;25.20;66.10
75615;DHT22;64199;48.578;-4.520;2023-06-22T12:59:37;25.20;66.10
75615;DHT22;64199;48.578;-4.520;2023-06-22T13:02:03;25.20;66.00
75615;DHT22;64199;48.578;-4.520;2023-06-22T13:04:29;25.20;66.10
75615;DHT22;64199;48.578;-4.520;2023-06-22T13:06:56;25.20;66.00
75615;DHT22;64199;48.578;-4.520;2023-06-22T13:09:23;25.20;66.00
75615;DHT22;64199;48.578;-4.520;2023-06-22T13:11:49;25.20;66.00
75615;DHT22;64199;48.578;-4.520;2023-06-22T13:14:15;25.20;66.00
75615;DHT22;64199;48.578;-4.520;2023-06-22T13:16:42;25.20;66.00
75615;DHT22;64199;48.578;-4.520;2023-06-22T13:19:11;25.20;66.00
75615;DHT22;64199;48.578;-4.520;2023-06-22T13:21:37;25.20;66.00
75615;DHT22;64199;48.578;-4.520;2023-06-22T13:24:03;25.20;65.90
75615;DHT22;64199;48.578;-4.520;2023-06-22T13:26:32;25.20;65.90
75615;DHT22;64199;48.578;-4.520;2023-06-22T13:28:58;25.20;66.70
75615;DHT22;64199;48.578;-4.520;2023-06-22T13:31:24;25.20;65.90
75615;DHT22;64199;48.578;-4.520;2023-06-22T13:33:50;25.20;65.90
75615;DHT22;64199;48.578;-4.520;2023-06-22T13:36:18;25.20;65.90
75615;DHT22;64199;48.578;-4.520;2023-06-22T13:38:44;25.20;65.90
75615;DHT22;64199;48.578;-4.520;2023-06-22T13:41:11;25.20;65.90
75615;DHT22;64199;48.578;-4.520;2023-06-22T13:43:37;25.20;65.90
75615;DHT22;64199;48.578;-4.520;2023-06-22T13:46:03;25.20;65.90
75615;DHT22;64199;48.578;-4.520;2023-06-22T13:48:29;25.20;65.90
75615;DHT22;64199;48.578;-4.520;2023-06-22T13:50:57;25.20;65.90
75615;DHT22;64199;48.578;-4.520;2023-06-22T13:53:25;25.20;65.90
75615;DHT22;64199;48.578;-4.520;2023-06-22T13:55:52;25.20;65.90
75615;DHT22;64199;48.578;-4.520;2023-06-22T13:58:17;25.20;65.90
75615;DHT22;64199;48.578;-4.520;2023-06-22T14:00:46;25.20;65.90
75615;DHT22;64199;48.578;-4.520;2023-06-22T14:03:12;25.20;65.90
75615;DHT22;64199;48.578;-4.520;2023-06-22T14:05:42;25.20;65.90
75615;DHT22;64199;48.578;-4.520;2023-06-22T14:08:11;25.20;65.90
75615;DHT22;64199;48.578;-4.520;2023-06-22T14:10:40;25.10;65.80
75615;DHT22;64199;48.578;-4.520;2023-06-22T14:13:06;25.20;65.90
75615;DHT22;64199;48.578;-4.520;2023-06-22T14:15:32;25.20;65.90
75615;DHT22;64199;48.578;-4.520;2023-06-22T14:17:58;25.20;65.90
75615;DHT22;64199;48.578;-4.520;2023-06-22T14:20:24;25.20;65.90
75615;DHT22;64199;48.578;-4.520;2023-06-22T14:22:51;25.20;65.90
75615;DHT22;64199;48.578;-4.520;2023-06-22T14:25:21;25.30;66.00
75615;DHT22;64199;48.578;-4.520;2023-06-22T14:27:57;25.30;66.00
75615;DHT22;64199;48.578;-4.520;2023-06-22T14:30:25;25.20;65.90
75615;DHT22;64199;48.578;-4.520;2023-06-22T14:32:51;25.30;66.00
75615;DHT22;64199;48.578;-4.520;2023-06-22T14:35:22;25.30;66.00
75615;DHT22;64199;48.578;-4.520;2023-06-22T14:37:53;25.30;66.00
75615;DHT22;64199;48.578;-4.520;2023-06-22T14:40:19;25.30;66.00
75615;DHT22;64199;48.578;-4.520;2023-06-22T14:42:46;25.30;66.00
75615;DHT22;64199;48.578;-4.520;2023-06-22T14:45:13;25.30;66.00
75615;DHT22;64199;48.578;-4.520;2023-06-22T14:47:39;25.30;66.00
75615;DHT22;64199;48.578;-4.520;2023-06-22T14:50:06;25.30;66.00
75615;DHT22;64199;48.578;-4.520;2023-06-22T14:52:32;25.30;66.00
75615;DHT22;64199;48.578;-4.520;2023-06-22T14:54:58;25.30;66.00
75615;DHT22;64199;48.578;-4.520;2023-06-22T14:57:24;25.30;66.00
75615;DHT22;64199;48.578;-4.520;2023-06-22T14:59:56;25.30;66.80
75615;DHT22;64199;48.578;-4.520;2023-06-22T15:02:22;25.40;66.00
75615;DHT22;64199;48.578;-4.520;2023-06-22T15:04:49;25.30;65.90
75615;DHT22;64199;48.578;-4.520;2023-06-22T15:07:17;25.30;65.90
75615;DHT22;64199;48.578;-4.520;2023-06-22T15:09:43;25.30;66.10
75615;DHT22;64199;48.578;-4.520;2023-06-22T15:12:11;25.30;66.00
75615;DHT22;64199;48.578;-4.520;2023-06-22T15:14:41;25.40;66.00
75615;DHT22;64199;48.578;-4.520;2023-06-22T15:17:08;25.30;66.00
75615;DHT22;64199;48.578;-4.520;2023-06-22T15:19:37;25.30;65.90
75615;DHT22;64199;48.578;-4.520;2023-06-22T15:22:05;25.30;66.00
75615;DHT22;64199;48.578;-4.520;2023-06-22T15:24:33;25.30;65.90